createdAt,value
2022-10-09T00:01:14.197Z,65.60
2022-10-09T00:03:42.765Z,65.70
2022-10-09T00:06:12.058Z,65.80
2022-10-09T00:08:39.516Z,65.90
2022-10-09T00:11:07.602Z,65.90
2022-10-09T00:13:34.719Z,65.90
2022-10-09T00:16:10.272Z,65.90
2022-10-09T00:18:37.647Z,65.90
2022-10-09T00:21:05.566Z,65.80
2022-10-09T00:23:32.852Z,65.80
2022-10-09T00:26:01.386Z,65.90
2022-10-09T00:28:34.238Z,65.80
2022-10-09T00:31:08.610Z,65.70
2022-10-09T00:33:36.646Z,65.80
2022-10-09T00:36:08.914Z,65.80
2022-10-09T00:38:35.689Z,65.80
2022-10-09T00:41:02.740Z,65.90
2022-10-09T00:43:40.548Z,66.00
2022-10-09T00:46:14.922Z,66.20
2022-10-09T00:48:41.719Z,66.10
2022-10-09T00:51:09.243Z,66.00
2022-10-09T00:53:36.278Z,66.10
2022-10-09T00:56:03.276Z,66.10
2022-10-09T00:58:30.059Z,66.20
2022-10-09T01:00:56.918Z,66.90
2022-10-09T01:03:23.635Z,66.20
2022-10-09T01:06:07.946Z,66.20
2022-10-09T01:09:02.599Z,66.30
2022-10-09T01:11:37.124Z,66.30
2022-10-09T01:14:07.289Z,66.20
2022-10-09T01:16:40.560Z,66.20
2022-10-09T01:19:15.986Z,66.10
2022-10-09T01:22:05.811Z,66.10
2022-10-09T01:24:39.478Z,66.00
2022-10-09T01:27:14.697Z,66.10
2022-10-09T01:29:45.813Z,66.10
2022-10-09T01:32:17.475Z,66.10
2022-10-09T01:34:45.997Z,66.10
2022-10-09T01:37:15.373Z,66.10
2022-10-09T01:39:45.519Z,66.10
2022-10-09T01:42:13.877Z,66.20
2022-10-09T01:44:40.750Z,66.10
2022-10-09T01:47:19.963Z,66.10
2022-10-09T01:49:59.528Z,66.10
2022-10-09T01:52:49.992Z,66.30
2022-10-09T01:55:46.338Z,66.40
2022-10-09T01:58:34.935Z,66.40
2022-10-09T02:01:16.620Z,66.40
2022-10-09T02:03:46.849Z,66.40
2022-10-09T02:06:15.705Z,66.20
2022-10-09T02:08:45.501Z,65.90
2022-10-09T02:11:14.871Z,65.90
2022-10-09T02:13:42.542Z,66.00
2022-10-09T02:16:39.178Z,66.00
2022-10-09T02:19:12.267Z,66.60
2022-10-09T02:21:48.032Z,65.80
2022-10-09T02:24:22.716Z,65.90
2022-10-09T02:26:51.149Z,65.80
2022-10-09T02:29:18.163Z,65.70
2022-10-09T02:31:45.256Z,65.50
2022-10-09T02:34:16.287Z,65.50
2022-10-09T02:36:43.399Z,65.60
2022-10-09T02:39:10.247Z,65.50
2022-10-09T02:41:37.290Z,65.40
2022-10-09T02:44:05.988Z,65.50
2022-10-09T02:46:33.391Z,65.30
2022-10-09T02:49:00.189Z,65.30
2022-10-09T02:51:27.028Z,65.30
2022-10-09T02:53:55.532Z,65.20
2022-10-09T02:56:23.739Z,65.30
2022-10-09T02:58:50.497Z,65.30
2022-10-09T03:01:17.803Z,65.20
2022-10-09T03:03:44.662Z,65.30
2022-10-09T03:06:18.043Z,65.20
2022-10-09T03:08:47.299Z,65.40
2022-10-09T03:11:15.944Z,65.40
2022-10-09T03:13:42.984Z,65.40
2022-10-09T03:16:16.064Z,65.40
2022-10-09T03:18:43.871Z,65.40
2022-10-09T03:21:13.564Z,65.40
2022-10-09T03:23:40.564Z,65.30
2022-10-09T03:26:09.900Z,65.30
2022-10-09T03:28:41.591Z,65.30
2022-10-09T03:31:08.817Z,65.40
2022-10-09T03:33:36.706Z,65.40
2022-10-09T03:36:04.538Z,65.40
2022-10-09T03:38:34.310Z,65.40
2022-10-09T03:41:02.785Z,65.30
2022-10-09T03:43:29.575Z,65.30
2022-10-09T03:46:00.942Z,65.10
2022-10-09T03:48:27.917Z,65.10
2022-10-09T03:50:54.624Z,65.20
2022-10-09T03:53:21.358Z,65.20
2022-10-09T03:55:48.055Z,65.10
2022-10-09T03:58:14.777Z,65.10
2022-10-09T04:00:45.367Z,65.20
2022-10-09T04:03:12.335Z,65.20
2022-10-09T04:05:39.049Z,65.10
2022-10-09T04:08:05.953Z,65.10
2022-10-09T04:10:32.737Z,65.10
2022-10-09T04:12:59.427Z,65.20
2022-10-09T04:15:26.313Z,65.10
2022-10-09T04:17:53.356Z,65.10
2022-10-09T04:20:20.975Z,65.20
2022-10-09T04:22:47.966Z,65.30
2022-10-09T04:25:14.919Z,65.30
2022-10-09T04:27:41.668Z,65.20
2022-10-09T04:30:09.569Z,65.10
2022-10-09T04:32:36.523Z,65.30
2022-10-09T04:35:03.371Z,65.20
2022-10-09T04:37:30.135Z,65.20
2022-10-09T04:39:56.840Z,65.30
2022-10-09T04:42:23.608Z,65.10
2022-10-09T04:44:50.383Z,65.10
2022-10-09T04:47:17.568Z,65.10
2022-10-09T04:49:44.241Z,65.20
2022-10-09T04:52:10.931Z,65.10
2022-10-09T04:54:37.622Z,65.00
2022-10-09T04:57:04.352Z,65.00
2022-10-09T04:59:31.107Z,65.00
2022-10-09T05:01:57.814Z,64.90
2022-10-09T05:04:24.604Z,64.90
2022-10-09T05:06:51.302Z,64.80
2022-10-09T05:09:18.092Z,64.80
2022-10-09T05:11:44.971Z,64.80
2022-10-09T05:14:11.710Z,64.90
2022-10-09T05:17:08.458Z,64.90
2022-10-09T05:19:25.796Z,65.00
2022-10-09T05:21:52.498Z,64.90
2022-10-09T05:24:19.363Z,64.90
2022-10-09T05:26:46.083Z,64.80
2022-10-09T05:29:12.805Z,64.60
2022-10-09T05:31:39.649Z,64.60
2022-10-09T05:34:06.425Z,64.60
2022-10-09T05:36:33.178Z,64.60
2022-10-09T05:39:01.224Z,64.40
2022-10-09T05:41:31.221Z,64.50
2022-10-09T05:44:01.826Z,64.30
2022-10-09T05:46:30.230Z,64.30
2022-10-09T05:49:02.233Z,64.30
2022-10-09T05:51:35.262Z,64.30
2022-10-09T05:54:02.060Z,64.30
2022-10-09T05:56:37.738Z,64.20
2022-10-09T05:59:09.876Z,64.30
2022-10-09T06:01:39.566Z,64.20
2022-10-09T06:04:09.871Z,64.20
2022-10-09T06:06:38.509Z,64.20
2022-10-09T06:09:06.754Z,64.30
2022-10-09T06:11:37.342Z,64.30
2022-10-09T06:14:05.882Z,64.50
2022-10-09T06:16:35.646Z,64.60
2022-10-09T06:19:03.913Z,64.60
2022-10-09T06:21:31.187Z,64.60
2022-10-09T06:23:59.920Z,64.70
2022-10-09T06:26:31.950Z,64.70
2022-10-09T06:29:00.816Z,64.80
2022-10-09T06:31:30.307Z,64.80
2022-10-09T06:33:59.125Z,64.90
2022-10-09T06:36:29.442Z,65.00
2022-10-09T06:38:56.373Z,65.00
2022-10-09T06:41:27.830Z,65.00
2022-10-09T06:43:56.576Z,65.30
2022-10-09T06:46:32.688Z,65.30
2022-10-09T06:49:00.874Z,65.50
2022-10-09T06:51:28.662Z,65.60
2022-10-09T06:53:57.329Z,65.70
2022-10-09T06:56:26.795Z,65.80
2022-10-09T06:58:53.641Z,66.00
2022-10-09T07:01:32.438Z,66.00
2022-10-09T07:04:07.092Z,66.20
2022-10-09T07:06:38.142Z,66.50
2022-10-09T07:09:07.651Z,66.60
2022-10-09T07:11:37.223Z,66.80
2022-10-09T07:14:07.244Z,67.00
2022-10-09T07:16:42.703Z,67.10
2022-10-09T07:19:11.395Z,67.40
2022-10-09T07:21:40.476Z,67.40
2022-10-09T07:24:07.555Z,67.60
2022-10-09T07:26:37.579Z,67.70
2022-10-09T07:29:06.185Z,68.00
2022-10-09T07:31:33.010Z,68.10
2022-10-09T07:34:00.279Z,68.20
2022-10-09T07:36:27.060Z,68.40
2022-10-09T07:38:56.466Z,68.40
2022-10-09T07:41:25.247Z,68.70
2022-10-09T07:43:51.954Z,68.90
2022-10-09T07:46:21.035Z,69.00
2022-10-09T07:48:48.973Z,69.10
2022-10-09T07:51:26.379Z,69.20
2022-10-09T07:53:53.903Z,69.30
2022-10-09T07:56:26.575Z,69.50
2022-10-09T07:58:55.666Z,69.50
2022-10-09T08:01:23.445Z,69.60
2022-10-09T08:03:50.669Z,69.60
2022-10-09T08:06:18.748Z,69.80
2022-10-09T08:08:49.170Z,69.90
2022-10-09T08:11:17.432Z,70.10
2022-10-09T08:13:45.338Z,70.10
2022-10-09T08:16:12.720Z,70.30
2022-10-09T08:18:39.602Z,70.40
2022-10-09T08:21:08.718Z,70.40
2022-10-09T08:23:35.708Z,70.70
2022-10-09T08:26:03.254Z,70.80
2022-10-09T08:28:30.581Z,70.90
2022-10-09T08:30:57.380Z,71.00
2022-10-09T08:33:25.886Z,71.00
2022-10-09T08:35:54.338Z,71.20
2022-10-09T08:38:45.505Z,71.20
2022-10-09T08:41:18.568Z,71.40
2022-10-09T08:43:48.755Z,71.20
2022-10-09T08:46:26.144Z,71.30
2022-10-09T08:48:54.842Z,71.40
2022-10-09T08:51:30.976Z,71.50
2022-10-09T08:54:27.863Z,71.50
2022-10-09T08:56:54.659Z,71.70
2022-10-09T08:59:21.443Z,71.60
2022-10-09T09:02:08.275Z,71.70
2022-10-09T09:04:54.446Z,71.80
2022-10-09T09:08:01.421Z,72.10
2022-10-09T09:10:34.078Z,71.90
2022-10-09T09:13:06.684Z,72.00
2022-10-09T09:15:42.257Z,72.10
2022-10-09T09:18:40.840Z,72.10
2022-10-09T09:21:32.401Z,72.30
2022-10-09T09:24:02.994Z,72.20
2022-10-09T09:26:29.933Z,72.20
2022-10-09T09:29:02.258Z,72.00
2022-10-09T09:31:36.102Z,72.10
2022-10-09T09:34:05.914Z,72.20
2022-10-09T09:36:50.200Z,72.10
2022-10-09T09:42:09.867Z,72.30
2022-10-09T09:44:40.597Z,72.30
2022-10-09T09:47:18.350Z,72.20
2022-10-09T09:49:59.879Z,72.50
2022-10-09T09:52:31.307Z,72.60
2022-10-09T09:54:59.073Z,72.50
2022-10-09T09:57:38.459Z,72.50
2022-10-09T10:00:23.716Z,72.80
2022-10-09T10:03:01.325Z,72.70
2022-10-09T10:05:28.292Z,72.50
2022-10-09T10:07:57.535Z,72.30
2022-10-09T10:10:29.031Z,72.50
2022-10-09T10:12:58.686Z,72.40
2022-10-09T10:15:31.601Z,72.50
2022-10-09T10:18:07.589Z,72.40
2022-10-09T10:20:48.230Z,72.50
2022-10-09T10:23:48.965Z,72.60
2022-10-09T10:26:23.848Z,72.70
2022-10-09T10:29:16.749Z,72.70
2022-10-09T10:31:53.746Z,72.80
2022-10-09T10:34:44.740Z,72.90
2022-10-09T10:37:14.610Z,72.80
2022-10-09T10:40:06.102Z,72.70
2022-10-09T10:42:57.337Z,72.80
2022-10-09T10:45:43.786Z,72.60
2022-10-09T10:48:14.934Z,72.60
2022-10-09T10:51:09.039Z,72.60
2022-10-09T10:54:00.064Z,72.40
2022-10-09T10:56:29.978Z,72.40
2022-10-09T10:59:27.892Z,72.40
2022-10-09T11:02:23.549Z,72.30
2022-10-09T11:05:02.662Z,72.40
2022-10-09T11:08:00.246Z,72.30
2022-10-09T11:10:58.270Z,72.00
2022-10-09T11:13:49.107Z,71.70
2022-10-09T11:16:37.524Z,71.80
2022-10-09T11:19:10.251Z,72.00
2022-10-09T11:21:57.974Z,71.90
2022-10-09T11:24:45.923Z,71.80
2022-10-09T11:27:43.668Z,71.60
2022-10-09T11:30:13.346Z,71.50
2022-10-09T11:33:05.195Z,71.30
2022-10-09T11:35:42.422Z,71.00
2022-10-09T11:38:35.053Z,71.00
2022-10-09T11:41:07.084Z,70.60
2022-10-09T11:44:06.569Z,70.60
2022-10-09T11:47:09.425Z,70.60
2022-10-09T11:49:46.342Z,70.40
2022-10-09T11:52:21.940Z,70.00
2022-10-09T11:54:48.669Z,70.10
2022-10-09T11:57:25.993Z,69.90
2022-10-09T12:00:05.502Z,69.70
2022-10-09T12:02:32.704Z,69.10
2022-10-09T12:04:59.851Z,69.10
2022-10-09T12:07:34.818Z,69.00
2022-10-09T12:10:39.391Z,68.70
2022-10-09T12:13:26.454Z,68.40
2022-10-09T12:15:59.404Z,68.10
2022-10-09T12:18:29.229Z,68.10
2022-10-09T12:20:58.806Z,67.70
2022-10-09T12:23:31.743Z,67.70
2022-10-09T12:26:00.547Z,67.20
2022-10-09T12:29:02.722Z,67.10
2022-10-09T12:31:33.649Z,66.50
2022-10-09T12:34:20.448Z,66.90
2022-10-09T12:36:47.302Z,67.00
2022-10-09T12:39:24.499Z,67.00
2022-10-09T12:41:59.543Z,66.90
2022-10-09T12:44:40.237Z,66.90
2022-10-09T12:47:22.046Z,66.70
2022-10-09T12:50:22.589Z,66.70
2022-10-09T12:52:59.220Z,66.30
2022-10-09T12:55:44.042Z,66.30
2022-10-09T12:58:24.053Z,66.10
2022-10-09T13:00:54.665Z,65.90
2022-10-09T13:03:37.598Z,65.80
2022-10-09T13:06:07.640Z,64.90
2022-10-09T13:08:36.273Z,65.30
2022-10-09T13:11:20.293Z,64.90
2022-10-09T13:13:51.940Z,64.70
2022-10-09T13:16:18.895Z,64.40
2022-10-09T13:18:56.829Z,64.20
2022-10-09T13:21:30.062Z,64.20
2022-10-09T13:24:10.750Z,64.30
2022-10-09T13:26:38.555Z,64.30
2022-10-09T13:29:07.185Z,64.30
2022-10-09T13:31:36.569Z,64.30
2022-10-09T13:34:13.674Z,64.30
2022-10-09T13:36:41.149Z,64.40
2022-10-09T13:39:14.548Z,64.30
2022-10-09T13:41:46.150Z,64.10
2022-10-09T13:44:12.924Z,64.00
2022-10-09T13:46:39.644Z,64.10
2022-10-09T13:49:06.398Z,64.10
2022-10-09T13:51:33.215Z,64.10
2022-10-09T13:53:59.949Z,64.10
2022-10-09T13:56:26.689Z,64.10
2022-10-09T13:58:54.773Z,63.90
2022-10-09T14:01:21.637Z,63.60
2022-10-09T14:03:48.538Z,63.70
2022-10-09T14:06:15.318Z,63.80
2022-10-09T14:08:42.130Z,64.50
2022-10-09T14:11:09.131Z,63.70
2022-10-09T14:13:35.875Z,63.80
2022-10-09T14:16:06.945Z,63.60
2022-10-09T14:18:33.959Z,63.80
2022-10-09T14:21:00.638Z,63.70
2022-10-09T14:23:27.355Z,63.40
2022-10-09T14:25:54.074Z,63.20
2022-10-09T14:28:21.842Z,63.20
2022-10-09T14:30:48.578Z,63.10
2022-10-09T14:33:15.345Z,63.00
2022-10-09T14:35:42.047Z,62.90
2022-10-09T14:38:08.742Z,63.10
2022-10-09T14:40:37.944Z,63.00
2022-10-09T14:43:04.647Z,62.50
2022-10-09T14:45:32.979Z,62.40
2022-10-09T14:47:59.774Z,62.20
2022-10-09T14:50:26.651Z,62.00
2022-10-09T14:52:53.430Z,61.90
2022-10-09T14:55:20.326Z,61.70
2022-10-09T14:57:47.134Z,61.50
2022-10-09T15:00:14.317Z,61.00
2022-10-09T15:05:12.677Z,61.00
2022-10-09T15:07:39.408Z,60.90
2022-10-09T15:10:06.459Z,60.80
2022-10-09T15:12:33.155Z,60.60
2022-10-09T15:14:59.866Z,60.70
2022-10-09T15:17:26.554Z,60.70
2022-10-09T15:19:54.021Z,60.90
2022-10-09T15:22:20.790Z,60.80
2022-10-09T15:24:47.864Z,60.70
2022-10-09T15:27:14.575Z,60.70
2022-10-09T15:29:41.295Z,60.70
2022-10-09T15:32:08.044Z,60.60
2022-10-09T15:34:36.532Z,60.80
2022-10-09T15:37:06.835Z,60.70
2022-10-09T15:39:33.622Z,60.60
2022-10-09T15:42:00.347Z,60.80
2022-10-09T15:44:27.203Z,60.80
2022-10-09T15:46:53.896Z,60.80
2022-10-09T15:49:20.690Z,60.70
2022-10-09T15:51:47.380Z,60.80
2022-10-09T15:54:15.315Z,60.60
2022-10-09T15:56:42.313Z,60.60
2022-10-09T15:59:13.701Z,60.40
2022-10-09T16:01:40.497Z,60.60
2022-10-09T16:04:07.192Z,60.50
2022-10-09T16:06:34.068Z,60.40
2022-10-09T16:09:01.197Z,60.40
2022-10-09T16:11:27.929Z,60.30
2022-10-09T16:13:55.633Z,60.40
2022-10-09T16:16:24.529Z,60.40
2022-10-09T16:18:52.152Z,60.40
2022-10-09T16:21:25.944Z,60.40
2022-10-09T16:23:58.105Z,60.20
2022-10-09T16:26:26.910Z,60.20
2022-10-09T16:28:53.781Z,60.30
2022-10-09T16:31:31.887Z,60.30
2022-10-09T16:33:59.103Z,60.50
2022-10-09T16:36:26.449Z,60.40
2022-10-09T16:38:53.285Z,60.60
2022-10-09T16:41:21.883Z,60.60
2022-10-09T16:43:50.944Z,60.90
2022-10-09T16:46:19.611Z,61.00
2022-10-09T16:48:47.128Z,61.40
2022-10-09T16:51:17.692Z,61.70
2022-10-09T16:53:44.635Z,62.10
2022-10-09T16:56:16.503Z,62.40
2022-10-09T16:58:43.941Z,62.80
2022-10-09T17:01:11.515Z,62.80
2022-10-09T17:03:42.394Z,63.10
2022-10-09T17:06:12.122Z,63.10
2022-10-09T17:08:39.377Z,63.40
2022-10-09T17:11:10.625Z,63.50
2022-10-09T17:13:37.555Z,63.70
2022-10-09T17:16:10.669Z,63.70
2022-10-09T17:18:39.542Z,63.90
2022-10-09T17:21:10.208Z,63.90
2022-10-09T17:23:37.064Z,64.20
2022-10-09T17:26:12.704Z,64.10
2022-10-09T17:28:40.818Z,64.20
2022-10-09T17:31:10.413Z,64.20
2022-10-09T17:33:41.243Z,64.40
2022-10-09T17:36:09.260Z,64.50
2022-10-09T17:38:36.562Z,64.50
2022-10-09T17:41:05.192Z,64.50
2022-10-09T17:43:32.009Z,64.60
2022-10-09T17:45:58.751Z,64.70
2022-10-09T17:48:25.531Z,64.90
2022-10-09T17:50:53.644Z,65.00
2022-10-09T17:53:22.700Z,65.00
2022-10-09T17:55:51.853Z,65.10
2022-10-09T17:58:20.188Z,65.30
2022-10-09T18:00:48.112Z,65.30
2022-10-09T18:03:16.183Z,65.40
2022-10-09T18:05:48.614Z,65.40
2022-10-09T18:08:18.053Z,65.40
2022-10-09T18:10:45.211Z,65.40
2022-10-09T18:13:12.286Z,65.50
2022-10-09T18:15:41.388Z,65.50
2022-10-09T18:18:08.565Z,65.70
2022-10-09T18:20:36.780Z,65.70
2022-10-09T18:23:04.282Z,65.80
2022-10-09T18:25:31.590Z,65.70
2022-10-09T18:27:58.630Z,65.90
2022-10-09T18:30:25.554Z,65.90
2022-10-09T18:32:52.705Z,66.00
2022-10-09T18:35:19.597Z,65.90
2022-10-09T18:37:46.370Z,65.90
2022-10-09T18:40:14.130Z,65.90
2022-10-09T18:42:40.920Z,66.00
2022-10-09T18:45:09.972Z,66.00
2022-10-09T18:47:36.793Z,65.90
2022-10-09T18:50:07.960Z,66.60
2022-10-09T18:52:35.896Z,65.90
2022-10-09T18:55:03.727Z,66.10
2022-10-09T18:57:31.165Z,66.20
2022-10-09T19:00:00.345Z,66.00
2022-10-09T19:02:27.642Z,66.20
2022-10-09T19:04:55.151Z,66.20
2022-10-09T19:07:22.476Z,66.20
2022-10-09T19:09:53.563Z,66.20
2022-10-09T19:12:21.772Z,66.30
2022-10-09T19:14:48.620Z,66.30
2022-10-09T19:17:15.457Z,66.40
2022-10-09T19:19:42.441Z,66.40
2022-10-09T19:22:14.080Z,66.40
2022-10-09T19:24:42.530Z,66.50
2022-10-09T19:27:09.516Z,66.50
2022-10-09T19:29:36.592Z,66.60
2022-10-09T19:32:03.573Z,66.60
2022-10-09T19:34:30.934Z,66.70
2022-10-09T19:36:57.992Z,66.70
2022-10-09T19:39:24.760Z,66.70
2022-10-09T19:41:51.626Z,66.70
2022-10-09T19:44:18.630Z,66.70
2022-10-09T19:46:45.955Z,66.70
2022-10-09T19:49:13.164Z,66.80
2022-10-09T19:51:42.512Z,66.80
2022-10-09T19:54:10.223Z,66.90
2022-10-09T19:56:38.159Z,66.90
2022-10-09T19:59:06.985Z,67.00
2022-10-09T20:01:35.871Z,67.00
2022-10-09T20:04:07.834Z,67.00
2022-10-09T20:06:38.045Z,66.90
2022-10-09T20:09:06.234Z,66.90
2022-10-09T20:11:34.735Z,66.90
2022-10-09T20:14:01.926Z,67.00
2022-10-09T20:16:32.107Z,67.00
2022-10-09T20:19:03.577Z,67.10
2022-10-09T20:21:32.059Z,67.10
2022-10-09T20:24:00.307Z,67.10
2022-10-09T20:26:27.206Z,67.20
2022-10-09T20:28:54.065Z,67.10
2022-10-09T20:31:23.121Z,67.10
2022-10-09T20:33:51.089Z,67.10
2022-10-09T20:36:27.258Z,67.10
2022-10-09T20:38:56.266Z,67.10
2022-10-09T20:41:23.519Z,67.00
2022-10-09T20:43:55.010Z,67.00
2022-10-09T20:46:23.792Z,66.90
2022-10-09T20:48:51.845Z,66.80
2022-10-09T20:51:19.696Z,66.70
2022-10-09T20:53:50.690Z,66.70
2022-10-09T20:56:17.416Z,66.70
2022-10-09T20:58:44.206Z,66.80
2022-10-09T21:01:12.204Z,66.70
2022-10-09T21:03:39.220Z,66.80
2022-10-09T21:06:08.219Z,66.90
2022-10-09T21:08:35.861Z,66.90
2022-10-09T21:11:06.361Z,67.00
2022-10-09T21:13:33.687Z,67.10
2022-10-09T21:16:00.474Z,67.10
2022-10-09T21:18:27.766Z,67.10
2022-10-09T21:20:54.492Z,67.10
2022-10-09T21:23:21.335Z,67.10
2022-10-09T21:25:50.066Z,67.00
2022-10-09T21:28:18.424Z,67.10
2022-10-09T21:30:45.218Z,67.20
2022-10-09T21:33:12.454Z,67.10
2022-10-09T21:35:47.875Z,67.10
2022-10-09T21:38:17.359Z,67.10
2022-10-09T21:40:45.287Z,67.10
2022-10-09T21:43:12.407Z,67.10
2022-10-09T21:45:40.339Z,67.20
2022-10-09T21:48:07.994Z,67.20
2022-10-09T21:50:36.432Z,67.10
2022-10-09T21:53:04.025Z,67.20
2022-10-09T21:55:31.029Z,67.10
2022-10-09T21:57:57.811Z,67.10
2022-10-09T22:00:24.535Z,67.00
2022-10-09T22:02:51.702Z,67.00
2022-10-09T22:05:18.697Z,66.90
2022-10-09T22:07:45.533Z,66.80
2022-10-09T22:10:12.479Z,66.80
2022-10-09T22:12:39.207Z,66.80
2022-10-09T22:15:06.457Z,67.50
2022-10-09T22:17:33.152Z,66.80
2022-10-09T22:19:59.876Z,66.70
2022-10-09T22:22:26.957Z,66.70
2022-10-09T22:24:53.889Z,66.80
2022-10-09T22:27:20.867Z,66.80
2022-10-09T22:29:48.748Z,66.80
2022-10-09T22:32:15.455Z,66.90
2022-10-09T22:34:42.151Z,66.90
2022-10-09T22:37:09.069Z,66.90
2022-10-09T22:39:35.803Z,67.10
2022-10-09T22:42:02.513Z,67.00
2022-10-09T22:44:29.284Z,67.80
2022-10-09T22:46:56.059Z,67.00
2022-10-09T22:49:22.769Z,67.10
2022-10-09T22:51:49.629Z,67.00
2022-10-09T22:54:16.381Z,67.00
2022-10-09T22:56:44.978Z,67.00
2022-10-09T22:59:15.114Z,67.10
2022-10-09T23:01:48.262Z,67.10
2022-10-09T23:04:16.328Z,67.10
2022-10-09T23:06:44.524Z,67.10
2022-10-09T23:09:13.942Z,67.30
2022-10-09T23:11:41.839Z,67.20
2022-10-09T23:14:10.358Z,67.10
2022-10-09T23:16:37.393Z,67.20
2022-10-09T23:19:07.094Z,67.10
2022-10-09T23:21:35.321Z,67.10
2022-10-09T23:24:02.082Z,67.10
2022-10-09T23:26:31.064Z,67.10
2022-10-09T23:29:01.979Z,67.20
2022-10-09T23:31:29.559Z,67.20
2022-10-09T23:33:56.816Z,67.20
2022-10-09T23:36:25.790Z,67.20
2022-10-09T23:38:53.388Z,67.20
2022-10-09T23:41:25.233Z,67.20
2022-10-09T23:43:52.300Z,67.30
2022-10-09T23:46:22.213Z,67.20
2022-10-09T23:48:50.687Z,67.30
2022-10-09T23:51:19.331Z,67.40
2022-10-09T23:53:46.937Z,67.50
2022-10-09T23:56:29.206Z,67.50
2022-10-09T23:58:56.800Z,67.50
